createdAt,value
2023-05-24T00:00:00.303Z,2.90
2023-05-24T00:02:27.524Z,3.23
2023-05-24T00:04:54.852Z,2.70
2023-05-24T00:07:22.108Z,2.97
2023-05-24T00:09:52.294Z,2.50
2023-05-24T00:12:19.569Z,3.03
2023-05-24T00:14:46.821Z,2.90
2023-05-24T00:17:14.209Z,3.27
2023-05-24T00:19:41.381Z,3.20
2023-05-24T00:22:08.609Z,3.00
2023-05-24T00:24:35.888Z,2.80
2023-05-24T00:27:03.086Z,3.10
2023-05-24T00:29:32.187Z,2.97
2023-05-24T00:31:59.761Z,3.57
2023-05-24T00:35:08.693Z,2.50
2023-05-24T00:37:37.470Z,2.73
2023-05-24T00:40:05.226Z,2.63
2023-05-24T00:42:32.399Z,2.67
2023-05-24T00:44:59.624Z,3.23
2023-05-24T00:47:27.085Z,3.40
2023-05-24T00:49:54.563Z,3.10
2023-05-24T00:52:22.336Z,3.10
2023-05-24T00:54:49.887Z,2.97
2023-05-24T00:57:18.996Z,2.80
2023-05-24T00:59:46.631Z,3.17
2023-05-24T01:02:14.146Z,2.90
2023-05-24T01:04:41.394Z,2.67
2023-05-24T01:07:46.149Z,2.80
2023-05-24T01:10:37.234Z,2.90
2023-05-24T01:18:29.842Z,3.20
2023-05-24T01:21:50.390Z,3.30
2023-05-24T01:24:53.853Z,3.20
2023-05-24T01:27:23.837Z,2.87
2023-05-24T01:29:53.679Z,3.00
2023-05-24T01:32:21.638Z,2.93
2023-05-24T01:34:49.002Z,3.00
2023-05-24T01:37:16.385Z,3.37
2023-05-24T01:39:43.832Z,2.97
2023-05-24T01:42:48.077Z,3.27
2023-05-24T01:45:35.657Z,2.70
2023-05-24T01:48:19.556Z,2.80
2023-05-24T01:50:53.864Z,3.40
2023-05-24T01:53:26.411Z,2.77
2023-05-24T01:56:01.086Z,2.97
2023-05-24T01:58:31.385Z,3.43
2023-05-24T02:00:58.905Z,3.17
2023-05-24T02:03:26.357Z,2.50
2023-05-24T02:05:53.698Z,2.83
2023-05-24T02:08:21.410Z,2.90
2023-05-24T02:10:48.658Z,2.93
2023-05-24T02:13:18.270Z,3.00
2023-05-24T02:15:45.825Z,2.60
2023-05-24T02:18:13.225Z,3.07
2023-05-24T02:20:41.106Z,3.17
2023-05-24T02:23:08.604Z,2.93
2023-05-24T02:25:36.925Z,2.70
2023-05-24T02:28:04.395Z,2.70
2023-05-24T02:30:31.659Z,3.13
2023-05-24T02:32:59.007Z,3.17
2023-05-24T02:35:26.283Z,3.10
2023-05-24T02:37:53.461Z,3.60
2023-05-24T02:40:20.714Z,3.30
2023-05-24T02:42:48.038Z,3.10
2023-05-24T02:45:15.376Z,3.37
2023-05-24T02:47:42.709Z,3.33
2023-05-24T02:50:10.674Z,3.30
2023-05-24T02:52:38.059Z,2.97
2023-05-24T02:55:06.907Z,3.20
2023-05-24T02:57:38.076Z,3.33
2023-05-24T03:00:11.218Z,3.80
2023-05-24T03:02:38.833Z,3.43
2023-05-24T03:05:07.171Z,3.50
2023-05-24T03:07:34.472Z,3.10
2023-05-24T03:10:01.693Z,3.10
2023-05-24T03:12:28.997Z,3.37
2023-05-24T03:14:56.164Z,3.50
2023-05-24T03:17:23.471Z,3.20
2023-05-24T03:19:52.575Z,3.80
2023-05-24T03:22:20.378Z,3.23
2023-05-24T03:24:47.558Z,3.50
2023-05-24T03:27:14.932Z,3.80
2023-05-24T03:29:42.119Z,3.73
2023-05-24T03:32:09.326Z,3.43
2023-05-24T03:34:36.612Z,3.80
2023-05-24T03:37:03.932Z,3.50
2023-05-24T03:39:31.652Z,3.70
2023-05-24T03:41:58.960Z,3.40
2023-05-24T03:44:27.030Z,3.70
2023-05-24T03:46:54.751Z,3.77
2023-05-24T03:49:22.099Z,3.60
2023-05-24T03:51:49.239Z,3.73
2023-05-24T03:54:18.140Z,4.23
2023-05-24T03:56:45.858Z,2.87
2023-05-24T03:59:13.121Z,4.47
2023-05-24T04:01:40.810Z,3.83
2023-05-24T04:04:08.150Z,3.70
2023-05-24T04:06:37.044Z,4.17
2023-05-24T04:09:07.572Z,4.23
2023-05-24T04:11:34.945Z,3.63
2023-05-24T04:14:03.920Z,4.67
2023-05-24T04:16:34.454Z,3.83
2023-05-24T04:19:04.309Z,3.90
2023-05-24T04:21:33.550Z,4.03
2023-05-24T04:24:01.846Z,4.07
2023-05-24T04:26:30.077Z,4.30
2023-05-24T04:28:58.444Z,3.97
2023-05-24T04:31:26.509Z,4.60
2023-05-24T04:33:53.824Z,5.13
2023-05-24T04:36:23.537Z,4.73
2023-05-24T04:38:53.865Z,3.60
2023-05-24T04:41:22.672Z,4.20
2023-05-24T04:43:50.656Z,4.40
2023-05-24T04:46:17.966Z,5.23
2023-05-24T04:48:45.206Z,4.53
2023-05-24T04:51:12.968Z,3.77
2023-05-24T04:53:40.234Z,3.80
2023-05-24T04:56:07.653Z,4.40
2023-05-24T04:58:36.263Z,4.60
2023-05-24T05:01:07.949Z,4.60
2023-05-24T05:03:35.197Z,4.20
2023-05-24T05:06:02.772Z,4.63
2023-05-24T05:08:31.367Z,4.43
2023-05-24T05:10:58.985Z,4.73
2023-05-24T05:13:26.227Z,4.53
2023-05-24T05:15:53.984Z,5.13
2023-05-24T05:18:21.393Z,5.40
2023-05-24T05:20:48.603Z,5.07
2023-05-24T05:23:16.122Z,6.07
2023-05-24T05:25:43.405Z,5.87
2023-05-24T05:28:10.715Z,5.57
2023-05-24T05:30:37.851Z,6.00
2023-05-24T05:33:06.315Z,5.33
2023-05-24T05:35:33.609Z,5.73
2023-05-24T05:38:00.799Z,5.10
2023-05-24T05:40:27.957Z,5.00
2023-05-24T05:42:55.151Z,4.77
2023-05-24T05:45:36.109Z,5.87
2023-05-24T05:48:03.393Z,5.63
2023-05-24T05:50:30.641Z,4.93
2023-05-24T05:52:58.243Z,4.70
2023-05-24T05:55:30.429Z,5.00
2023-05-24T05:57:57.692Z,5.20
2023-05-24T06:00:25.054Z,4.87
2023-05-24T06:02:52.423Z,5.30
2023-05-24T06:05:20.183Z,4.83
2023-05-24T06:07:47.813Z,5.30
2023-05-24T06:10:15.112Z,5.20
2023-05-24T06:12:42.406Z,5.17
2023-05-24T06:15:10.281Z,4.80
2023-05-24T06:17:37.928Z,4.57
2023-05-24T06:20:15.935Z,4.47
2023-05-24T06:23:58.953Z,5.00
2023-05-24T06:26:27.252Z,5.30
2023-05-24T06:28:55.222Z,5.10
2023-05-24T06:31:22.769Z,5.00
2023-05-24T06:34:02.465Z,5.63
2023-05-24T06:36:34.354Z,4.10
2023-05-24T06:39:05.069Z,5.17
2023-05-24T06:41:39.469Z,4.30
2023-05-24T06:44:07.025Z,4.63
2023-05-24T06:46:35.225Z,4.43
2023-05-24T06:49:03.744Z,5.17
2023-05-24T06:51:33.994Z,4.50
2023-05-24T06:54:22.173Z,5.23
2023-05-24T06:56:49.458Z,4.77
2023-05-24T06:59:16.844Z,5.10
2023-05-24T07:01:44.358Z,5.37
2023-05-24T07:04:11.566Z,5.57
2023-05-24T07:06:39.674Z,4.77
2023-05-24T07:09:07.105Z,6.17
2023-05-24T07:11:34.944Z,5.07
2023-05-24T07:14:02.539Z,5.33
2023-05-24T07:16:33.190Z,5.20
2023-05-24T07:19:03.150Z,5.70
2023-05-24T07:21:34.900Z,4.93
2023-05-24T07:24:04.160Z,6.10
2023-05-24T07:26:31.881Z,4.83
2023-05-24T07:28:59.015Z,5.93
2023-05-24T07:31:27.651Z,5.73
2023-05-24T07:33:54.898Z,5.73
2023-05-24T07:36:22.255Z,5.80
2023-05-24T07:38:49.499Z,4.90
2023-05-24T07:41:17.299Z,5.80
2023-05-24T07:43:47.179Z,6.13
2023-05-24T07:46:14.500Z,5.20
2023-05-24T07:48:41.673Z,6.10
2023-05-24T07:51:08.962Z,5.20
2023-05-24T07:53:37.888Z,5.10
2023-05-24T07:56:05.673Z,5.80
2023-05-24T07:58:33.038Z,5.03
2023-05-24T08:01:19.358Z,4.90
2023-05-24T08:03:47.557Z,4.73
2023-05-24T08:06:14.831Z,4.93
2023-05-24T08:08:42.173Z,4.53
2023-05-24T08:11:09.462Z,5.60
2023-05-24T08:13:36.706Z,4.93
2023-05-24T08:16:04.154Z,5.17
2023-05-24T08:18:31.462Z,5.00
2023-05-24T08:20:59.023Z,4.93
2023-05-24T08:28:48.893Z,4.90
2023-05-24T08:31:16.496Z,5.30
2023-05-24T08:33:44.315Z,4.63
2023-05-24T08:36:11.633Z,4.80
2023-05-24T08:38:39.005Z,5.23
2023-05-24T08:41:09.624Z,4.37
2023-05-24T08:43:38.860Z,4.53
2023-05-24T08:46:07.971Z,4.47
2023-05-24T08:48:47.184Z,4.47
2023-05-24T08:51:18.261Z,4.37
2023-05-24T08:53:49.218Z,4.53
2023-05-24T08:56:19.827Z,4.47
2023-05-24T08:58:47.604Z,4.50
2023-05-24T09:01:18.034Z,4.60
2023-05-24T09:03:48.358Z,4.17
2023-05-24T09:06:19.498Z,4.23
2023-05-24T09:08:47.512Z,3.90
2023-05-24T09:11:17.222Z,3.53
2023-05-24T09:13:46.493Z,3.50
2023-05-24T09:16:15.420Z,3.77
2023-05-24T09:18:43.168Z,3.97
2023-05-24T09:21:12.488Z,3.63
2023-05-24T09:23:41.720Z,3.83
2023-05-24T09:26:10.625Z,3.93
2023-05-24T09:28:39.062Z,3.73
2023-05-24T09:31:08.090Z,4.43
2023-05-24T09:33:36.405Z,3.77
2023-05-24T09:36:07.157Z,4.03
2023-05-24T09:38:36.758Z,4.47
2023-05-24T09:41:07.560Z,4.10
2023-05-24T09:43:48.554Z,4.40
2023-05-24T09:46:22.586Z,4.30
2023-05-24T09:49:03.694Z,4.47
2023-05-24T09:51:31.307Z,3.83
2023-05-24T09:54:02.085Z,4.20
2023-05-24T09:56:31.370Z,3.80
2023-05-24T09:58:59.011Z,4.17
2023-05-24T10:01:28.371Z,3.63
2023-05-24T10:04:09.873Z,3.93
2023-05-24T10:06:38.696Z,4.10
2023-05-24T10:09:08.117Z,4.07
2023-05-24T10:11:37.671Z,4.03
2023-05-24T10:14:10.939Z,4.17
2023-05-24T10:16:38.576Z,4.50
2023-05-24T10:19:07.212Z,4.13
2023-05-24T10:21:42.018Z,4.07
2023-05-24T10:24:11.424Z,3.90
2023-05-24T10:26:42.650Z,3.83
2023-05-24T10:29:45.440Z,3.87
2023-05-24T10:32:17.445Z,3.97
2023-05-24T10:34:47.134Z,3.67
2023-05-24T10:37:15.080Z,3.63
2023-05-24T10:39:43.050Z,3.80
2023-05-24T10:42:10.523Z,3.87
2023-05-24T10:44:37.819Z,3.70
2023-05-24T10:47:15.882Z,4.37
2023-05-24T10:49:53.674Z,3.90
2023-05-24T10:52:21.272Z,3.70
2023-05-24T10:55:10.421Z,3.60
2023-05-24T10:57:40.266Z,3.63
2023-05-24T11:00:34.560Z,3.73
2023-05-24T11:03:09.389Z,3.90
2023-05-24T11:05:51.172Z,3.47
2023-05-24T11:08:26.397Z,3.87
2023-05-24T11:11:24.363Z,3.63
2023-05-24T11:13:58.159Z,3.93
2023-05-24T11:16:40.373Z,3.63
2023-05-24T11:19:29.787Z,3.53
2023-05-24T11:22:00.722Z,3.57
2023-05-24T11:24:29.323Z,3.70
2023-05-24T11:26:58.358Z,3.90
2023-05-24T11:29:25.801Z,4.17
2023-05-24T11:32:04.744Z,4.10
2023-05-24T11:34:33.635Z,3.53
2023-05-24T11:37:03.254Z,3.30
2023-05-24T11:39:36.837Z,3.33
2023-05-24T11:42:08.936Z,3.63
2023-05-24T11:44:40.184Z,3.80
2023-05-24T11:47:08.997Z,3.97
2023-05-24T11:49:36.903Z,3.80
2023-05-24T11:52:04.930Z,3.80
2023-05-24T11:54:54.731Z,3.83
2023-05-24T11:57:41.417Z,4.07
2023-05-24T12:00:11.730Z,3.90
2023-05-24T12:02:40.479Z,3.77
2023-05-24T12:05:14.408Z,3.83
2023-05-24T12:07:41.866Z,3.53
2023-05-24T12:10:10.895Z,4.23
2023-05-24T12:12:46.233Z,3.97
2023-05-24T12:15:15.058Z,4.10
2023-05-24T12:17:43.171Z,3.77
2023-05-24T12:20:15.267Z,3.90
2023-05-24T12:22:53.905Z,3.87
2023-05-24T12:25:23.939Z,3.70
2023-05-24T12:27:56.783Z,4.30
2023-05-24T12:30:26.221Z,3.97
2023-05-24T12:32:56.621Z,4.30
2023-05-24T12:35:24.964Z,3.70
2023-05-24T12:38:00.327Z,3.70
2023-05-24T12:40:27.932Z,3.50
2023-05-24T12:42:57.493Z,4.00
2023-05-24T12:45:26.938Z,4.10
2023-05-24T12:47:56.795Z,3.60
2023-05-24T12:50:27.214Z,3.63
2023-05-24T12:52:55.029Z,3.70
2023-05-24T12:55:28.008Z,4.20
2023-05-24T12:57:57.568Z,3.90
2023-05-24T13:00:27.986Z,4.23
2023-05-24T13:02:59.695Z,4.07
2023-05-24T13:05:29.421Z,3.90
2023-05-24T13:07:58.005Z,3.60
2023-05-24T13:10:27.731Z,4.00
2023-05-24T13:12:56.528Z,3.60
2023-05-24T13:15:24.354Z,4.00
2023-05-24T13:17:51.837Z,4.10
2023-05-24T13:21:15.425Z,4.10
2023-05-24T13:23:46.944Z,3.90
2023-05-24T13:26:14.638Z,3.90
2023-05-24T13:28:53.365Z,3.90
2023-05-24T13:31:31.021Z,4.07
2023-05-24T13:33:58.449Z,3.43
2023-05-24T13:36:26.125Z,3.80
2023-05-24T13:39:02.587Z,4.17
2023-05-24T13:41:46.555Z,3.57
2023-05-24T13:44:24.668Z,2.93
2023-05-24T13:46:55.409Z,3.60
2023-05-24T13:49:25.756Z,3.37
2023-05-24T13:52:06.656Z,3.60
2023-05-24T13:54:37.240Z,3.63
2023-05-24T13:57:08.138Z,3.57
2023-05-24T13:59:36.255Z,3.70
2023-05-24T14:02:09.346Z,3.63
2023-05-24T14:04:37.259Z,3.77
2023-05-24T14:07:08.972Z,3.20
2023-05-24T14:09:40.087Z,2.83
2023-05-24T14:12:09.240Z,3.50
2023-05-24T14:14:59.276Z,3.37
2023-05-24T14:17:24.325Z,4.10
2023-05-24T14:19:51.964Z,3.23
2023-05-24T14:22:19.635Z,3.50
2023-05-24T14:24:47.419Z,3.60
2023-05-24T14:27:15.072Z,3.50
2023-05-24T14:29:42.358Z,3.80
2023-05-24T14:32:11.690Z,3.80
2023-05-24T14:34:41.664Z,4.00
2023-05-24T14:37:09.348Z,3.83
2023-05-24T14:39:36.867Z,3.50
2023-05-24T14:42:04.611Z,3.80
2023-05-24T14:44:31.975Z,3.60
2023-05-24T14:46:59.608Z,3.30
2023-05-24T14:49:27.993Z,3.83
2023-05-24T14:51:55.842Z,3.13
2023-05-24T14:54:23.403Z,3.13
2023-05-24T14:56:50.815Z,3.47
2023-05-24T14:59:19.400Z,3.10
2023-05-24T15:01:47.442Z,3.80
2023-05-24T15:04:15.228Z,3.70
2023-05-24T15:06:42.656Z,3.37
2023-05-24T15:09:10.191Z,3.30
2023-05-24T15:11:38.169Z,3.30
2023-05-24T15:14:07.041Z,3.37
2023-05-24T15:16:34.787Z,3.70
2023-05-24T15:19:02.493Z,3.30
2023-05-24T15:21:30.044Z,3.53
2023-05-24T15:24:00.354Z,3.57
2023-05-24T15:26:30.969Z,4.00
2023-05-24T15:30:15.439Z,3.40
2023-05-24T15:41:03.920Z,3.50
2023-05-24T15:43:32.086Z,3.87
2023-05-24T15:45:59.639Z,3.33
2023-05-24T15:48:29.582Z,3.30
2023-05-24T15:51:57.562Z,3.87
2023-05-24T15:53:45.096Z,4.77
2023-05-24T15:56:12.645Z,3.83
2023-05-24T15:58:40.106Z,3.60
2023-05-24T16:01:07.664Z,3.27
2023-05-24T16:03:38.156Z,3.90
2023-05-24T16:06:07.297Z,3.83
2023-05-24T16:08:34.734Z,3.70
2023-05-24T16:11:04.013Z,3.80
2023-05-24T16:13:33.608Z,3.97
2023-05-24T16:16:01.603Z,3.57
2023-05-24T16:18:34.136Z,3.90
2023-05-24T16:21:01.909Z,3.30
2023-05-24T16:23:30.010Z,3.20
2023-05-24T16:25:57.858Z,3.87
2023-05-24T16:28:25.470Z,3.80
2023-05-24T16:30:57.713Z,3.30
2023-05-24T16:33:25.604Z,3.43
2023-05-24T16:35:56.536Z,3.73
2023-05-24T16:38:28.868Z,3.37
2023-05-24T16:41:37.799Z,3.53
2023-05-24T16:44:09.798Z,3.77
2023-05-24T16:46:42.508Z,3.53
2023-05-24T16:49:10.169Z,2.93
2023-05-24T16:51:38.989Z,3.40
2023-05-24T16:54:25.605Z,3.37
2023-05-24T16:57:12.905Z,3.70
2023-05-24T16:59:42.450Z,3.50
2023-05-24T17:02:09.996Z,3.43
2023-05-24T17:04:37.389Z,3.50
2023-05-24T17:07:06.189Z,3.67
2023-05-24T17:09:36.791Z,3.83
2023-05-24T17:12:04.436Z,3.70
2023-05-24T17:14:33.140Z,3.50
2023-05-24T17:17:00.730Z,3.97
2023-05-24T17:19:31.217Z,3.53
2023-05-24T17:21:59.837Z,3.47
2023-05-24T17:24:27.983Z,3.73
2023-05-24T17:26:55.612Z,3.87
2023-05-24T17:29:24.696Z,3.50
2023-05-24T17:31:52.979Z,3.43
2023-05-24T17:34:21.372Z,3.73
2023-05-24T17:36:50.134Z,3.63
2023-05-24T17:39:23.552Z,3.20
2023-05-24T17:41:51.629Z,3.73
2023-05-24T17:44:19.376Z,3.97
2023-05-24T17:46:47.982Z,3.73
2023-05-24T17:49:17.505Z,3.83
2023-05-24T17:51:45.188Z,3.67
2023-05-24T17:54:19.584Z,3.93
2023-05-24T17:56:52.548Z,3.80
2023-05-24T17:59:20.150Z,4.03
2023-05-24T18:01:49.942Z,3.50
2023-05-24T18:04:20.420Z,3.63
2023-05-24T18:06:47.927Z,3.43
2023-05-24T18:09:16.948Z,3.80
2023-05-24T18:11:46.123Z,3.47
2023-05-24T18:14:14.967Z,3.40
2023-05-24T18:16:43.105Z,3.73
2023-05-24T18:19:10.780Z,4.13
2023-05-24T18:21:41.186Z,4.07
2023-05-24T18:24:10.594Z,3.87
2023-05-24T18:26:38.390Z,3.97
2023-05-24T18:29:05.760Z,3.20
2023-05-24T18:31:33.091Z,3.93
2023-05-24T18:34:01.851Z,3.83
2023-05-24T18:36:30.775Z,3.73
2023-05-24T18:39:00.713Z,3.87
2023-05-24T18:41:28.056Z,3.90
2023-05-24T18:44:04.069Z,3.80
2023-05-24T18:46:33.916Z,3.97
2023-05-24T18:49:03.078Z,3.77
2023-05-24T18:51:30.414Z,3.60
2023-05-24T18:53:59.234Z,3.83
2023-05-24T18:56:27.288Z,4.03
2023-05-24T18:58:59.280Z,4.17
2023-05-24T19:01:29.877Z,4.17
2023-05-24T19:03:58.894Z,3.90
2023-05-24T19:06:28.833Z,4.27
2023-05-24T19:09:00.512Z,4.07
2023-05-24T19:11:28.770Z,3.80
2023-05-24T19:13:56.918Z,3.73
2023-05-24T19:16:27.087Z,3.80
2023-05-24T19:18:54.725Z,3.63
2023-05-24T19:21:24.643Z,3.80
2023-05-24T19:23:53.780Z,3.73
2023-05-24T19:26:21.365Z,3.40
2023-05-24T19:28:50.908Z,3.70
2023-05-24T19:31:25.527Z,3.60
2023-05-24T19:34:00.302Z,3.67
2023-05-24T19:36:31.591Z,3.73
2023-05-24T19:39:02.602Z,3.87
2023-05-24T19:41:31.216Z,3.93
2023-05-24T19:43:59.194Z,3.70
2023-05-24T19:46:30.030Z,3.77
2023-05-24T19:48:57.865Z,3.43
2023-05-24T19:51:27.423Z,3.50
2023-05-24T19:53:55.364Z,3.47
2023-05-24T19:56:24.265Z,3.77
2023-05-24T19:58:53.136Z,4.00
2023-05-24T20:01:23.696Z,3.50
2023-05-24T20:03:52.926Z,3.90
2023-05-24T20:06:20.596Z,3.93
2023-05-24T20:08:48.535Z,4.47
2023-05-24T20:11:17.907Z,4.60
2023-05-24T20:13:47.065Z,4.17
2023-05-24T20:16:14.973Z,4.50
2023-05-24T20:18:43.375Z,4.23
2023-05-24T20:21:14.142Z,3.87
2023-05-24T20:23:44.740Z,3.83
2023-05-24T20:26:14.068Z,3.90
2023-05-24T20:28:42.735Z,3.90
2023-05-24T20:31:10.410Z,4.03
2023-05-24T20:33:38.979Z,3.73
2023-05-24T20:36:07.743Z,3.93
2023-05-24T20:38:35.969Z,3.70
2023-05-24T20:41:04.480Z,3.97
2023-05-24T20:43:32.052Z,3.57
2023-05-24T20:45:59.726Z,3.77
2023-05-24T20:48:32.321Z,3.57
2023-05-24T20:50:59.942Z,3.30
2023-05-24T20:53:28.044Z,3.73
2023-05-24T20:55:57.371Z,3.47
2023-05-24T20:58:24.987Z,3.57
2023-05-24T21:00:52.680Z,3.67
2023-05-24T21:03:20.755Z,3.50
2023-05-24T21:05:50.673Z,4.17
2023-05-24T21:08:18.432Z,3.93
2023-05-24T21:10:46.823Z,4.10
2023-05-24T21:13:14.540Z,4.60
2023-05-24T21:15:44.646Z,4.70
2023-05-24T21:18:12.930Z,4.77
2023-05-24T21:20:40.756Z,4.10
2023-05-24T21:23:08.571Z,4.20
2023-05-24T21:25:36.494Z,4.23
2023-05-24T21:28:03.952Z,4.07
2023-05-24T21:30:31.721Z,4.77
2023-05-24T21:36:59.419Z,4.50
2023-05-24T21:47:47.477Z,3.90
2023-05-24T21:50:17.832Z,3.80
2023-05-24T21:52:45.027Z,4.40
2023-05-24T21:55:12.406Z,4.40
2023-05-24T21:57:39.920Z,4.60
2023-05-24T22:00:09.005Z,4.53
2023-05-24T22:02:37.275Z,4.67
2023-05-24T22:05:05.621Z,5.27
2023-05-24T22:07:33.567Z,5.57
2023-05-24T22:10:01.145Z,6.90
2023-05-24T22:12:28.725Z,8.00
2023-05-24T22:14:56.196Z,7.53
2023-05-24T22:17:25.958Z,7.07
2023-05-24T22:19:53.738Z,6.10
2023-05-24T22:22:23.085Z,6.00
2023-05-24T22:24:51.088Z,5.57
2023-05-24T22:27:18.418Z,6.30
2023-05-24T22:29:45.599Z,6.43
2023-05-24T22:32:13.754Z,6.00
2023-05-24T22:34:41.105Z,5.70
2023-05-24T22:37:08.424Z,4.70
2023-05-24T22:39:35.651Z,4.20
2023-05-24T22:42:03.175Z,3.93
2023-05-24T22:48:40.920Z,4.17
2023-05-24T22:51:09.212Z,4.23
2023-05-24T22:53:39.154Z,3.60
2023-05-24T22:56:10.540Z,4.20
2023-05-24T22:58:38.446Z,4.10
2023-05-24T23:01:05.852Z,3.80
2023-05-24T23:03:33.089Z,4.40
2023-05-24T23:06:04.293Z,4.50
2023-05-24T23:08:32.544Z,3.80
2023-05-24T23:11:00.773Z,3.70
2023-05-24T23:13:28.137Z,3.70
2023-05-24T23:15:58.740Z,4.07
2023-05-24T23:18:26.673Z,4.00
2023-05-24T23:20:54.493Z,3.80
2023-05-24T23:23:24.956Z,4.03
2023-05-24T23:25:52.344Z,4.10
2023-05-24T23:28:20.295Z,4.10
2023-05-24T23:30:47.471Z,3.73
2023-05-24T23:33:14.600Z,4.00
2023-05-24T23:35:42.033Z,4.20
2023-05-24T23:38:09.408Z,4.07
2023-05-24T23:40:36.786Z,4.03
2023-05-24T23:43:04.484Z,4.27
2023-05-24T23:45:32.277Z,3.90
2023-05-24T23:47:59.853Z,3.90
2023-05-24T23:50:27.566Z,3.97
2023-05-24T23:52:55.354Z,3.97
2023-05-24T23:55:23.713Z,4.10
2023-05-24T23:57:52.210Z,4.03
